sensor_id;sensor_type;location;lat;lon;timestamp;P1;durP1;ratioP1;P2;durP2;ratioP2
67372;SDS011;54257;54.496;18.412;2023-05-14T00:02:04;8.60;;;6.20;;
67372;SDS011;54257;54.496;18.412;2023-05-14T00:04:31;8.60;;;6.00;;
67372;SDS011;54257;54.496;18.412;2023-05-14T00:06:57;6.30;;;5.80;;
67372;SDS011;54257;54.496;18.412;2023-05-14T00:09:24;7.00;;;5.70;;
67372;SDS011;54257;54.496;18.412;2023-05-14T00:11:51;8.60;;;5.90;;
67372;SDS011;54257;54.496;18.412;2023-05-14T00:14:18;6.10;;;5.50;;
67372;SDS011;54257;54.496;18.412;2023-05-14T00:16:45;8.30;;;5.80;;
67372;SDS011;54257;54.496;18.412;2023-05-14T00:19:12;8.20;;;6.30;;
67372;SDS011;54257;54.496;18.412;2023-05-14T00:21:39;6.80;;;6.10;;
67372;SDS011;54257;54.496;18.412;2023-05-14T00:24:06;6.90;;;5.90;;
67372;SDS011;54257;54.496;18.412;2023-05-14T00:26:33;6.80;;;6.10;;
67372;SDS011;54257;54.496;18.412;2023-05-14T00:29:00;8.70;;;6.40;;
67372;SDS011;54257;54.496;18.412;2023-05-14T00:31:27;9.10;;;6.50;;
67372;SDS011;54257;54.496;18.412;2023-05-14T00:33:53;7.20;;;5.70;;
67372;SDS011;54257;54.496;18.412;2023-05-14T00:36:20;8.60;;;6.10;;
67372;SDS011;54257;54.496;18.412;2023-05-14T00:38:47;6.30;;;5.50;;
67372;SDS011;54257;54.496;18.412;2023-05-14T00:41:14;7.50;;;6.30;;
67372;SDS011;54257;54.496;18.412;2023-05-14T00:43:47;8.60;;;5.60;;
67372;SDS011;54257;54.496;18.412;2023-05-14T00:46:14;8.60;;;6.30;;
67372;SDS011;54257;54.496;18.412;2023-05-14T00:48:43;7.30;;;5.70;;
67372;SDS011;54257;54.496;18.412;2023-05-14T00:51:10;6.30;;;5.70;;
67372;SDS011;54257;54.496;18.412;2023-05-14T00:53:37;12.10;;;5.50;;
67372;SDS011;54257;54.496;18.412;2023-05-14T00:56:04;10.00;;;6.40;;
67372;SDS011;54257;54.496;18.412;2023-05-14T00:58:32;7.00;;;6.00;;
67372;SDS011;54257;54.496;18.412;2023-05-14T01:00:59;7.20;;;6.20;;
67372;SDS011;54257;54.496;18.412;2023-05-14T01:03:26;8.90;;;5.60;;
67372;SDS011;54257;54.496;18.412;2023-05-14T01:11:51;6.90;;;5.90;;
67372;SDS011;54257;54.496;18.412;2023-05-14T01:14:44;7.20;;;6.50;;
67372;SDS011;54257;54.496;18.412;2023-05-14T01:19:52;6.90;;;5.80;;
67372;SDS011;54257;54.496;18.412;2023-05-14T01:22:21;9.20;;;6.70;;
67372;SDS011;54257;54.496;18.412;2023-05-14T01:24:47;10.00;;;6.60;;
67372;SDS011;54257;54.496;18.412;2023-05-14T01:27:24;6.20;;;5.60;;
67372;SDS011;54257;54.496;18.412;2023-05-14T01:32:52;13.10;;;6.40;;
67372;SDS011;54257;54.496;18.412;2023-05-14T01:35:24;8.30;;;6.30;;
67372;SDS011;54257;54.496;18.412;2023-05-14T01:37:54;8.70;;;7.70;;
67372;SDS011;54257;54.496;18.412;2023-05-14T01:40:23;10.50;;;6.70;;
67372;SDS011;54257;54.496;18.412;2023-05-14T01:42:50;8.10;;;6.70;;
67372;SDS011;54257;54.496;18.412;2023-05-14T01:45:19;9.60;;;6.00;;
67372;SDS011;54257;54.496;18.412;2023-05-14T01:47:47;9.20;;;6.80;;
67372;SDS011;54257;54.496;18.412;2023-05-14T01:50:14;7.10;;;6.10;;
67372;SDS011;54257;54.496;18.412;2023-05-14T01:52:40;7.30;;;5.80;;
67372;SDS011;54257;54.496;18.412;2023-05-14T01:55:07;7.40;;;6.60;;
67372;SDS011;54257;54.496;18.412;2023-05-14T01:57:34;8.90;;;5.60;;
67372;SDS011;54257;54.496;18.412;2023-05-14T02:00:01;12.20;;;6.50;;
67372;SDS011;54257;54.496;18.412;2023-05-14T02:02:29;7.40;;;6.70;;
67372;SDS011;54257;54.496;18.412;2023-05-14T02:04:56;9.60;;;6.70;;
67372;SDS011;54257;54.496;18.412;2023-05-14T02:07:23;9.10;;;7.30;;
67372;SDS011;54257;54.496;18.412;2023-05-14T02:09:50;10.10;;;7.10;;
67372;SDS011;54257;54.496;18.412;2023-05-14T02:12:17;9.70;;;7.00;;
67372;SDS011;54257;54.496;18.412;2023-05-14T02:14:44;7.80;;;7.00;;
67372;SDS011;54257;54.496;18.412;2023-05-14T02:17:12;8.40;;;7.50;;
67372;SDS011;54257;54.496;18.412;2023-05-14T02:19:42;12.90;;;7.60;;
67372;SDS011;54257;54.496;18.412;2023-05-14T02:22:09;8.80;;;6.90;;
67372;SDS011;54257;54.496;18.412;2023-05-14T02:24:36;11.50;;;7.00;;
67372;SDS011;54257;54.496;18.412;2023-05-14T02:27:06;8.30;;;6.50;;
67372;SDS011;54257;54.496;18.412;2023-05-14T02:29:33;9.90;;;7.20;;
67372;SDS011;54257;54.496;18.412;2023-05-14T02:32:02;7.80;;;6.90;;
67372;SDS011;54257;54.496;18.412;2023-05-14T02:34:29;10.30;;;6.80;;
67372;SDS011;54257;54.496;18.412;2023-05-14T02:36:59;8.50;;;7.20;;
67372;SDS011;54257;54.496;18.412;2023-05-14T02:39:35;7.90;;;7.00;;
67372;SDS011;54257;54.496;18.412;2023-05-14T02:42:02;7.30;;;6.60;;
67372;SDS011;54257;54.496;18.412;2023-05-14T02:44:28;7.80;;;6.00;;
67372;SDS011;54257;54.496;18.412;2023-05-14T02:46:57;10.20;;;6.50;;
67372;SDS011;54257;54.496;18.412;2023-05-14T02:49:23;8.30;;;6.60;;
67372;SDS011;54257;54.496;18.412;2023-05-14T02:51:50;7.40;;;6.60;;
67372;SDS011;54257;54.496;18.412;2023-05-14T02:54:19;8.40;;;6.70;;
67372;SDS011;54257;54.496;18.412;2023-05-14T02:56:46;7.30;;;6.50;;
67372;SDS011;54257;54.496;18.412;2023-05-14T02:59:13;8.70;;;7.80;;
67372;SDS011;54257;54.496;18.412;2023-05-14T03:01:40;7.80;;;7.00;;
67372;SDS011;54257;54.496;18.412;2023-05-14T03:04:07;9.60;;;7.50;;
67372;SDS011;54257;54.496;18.412;2023-05-14T03:06:35;9.30;;;7.30;;
67372;SDS011;54257;54.496;18.412;2023-05-14T03:09:02;8.30;;;6.90;;
67372;SDS011;54257;54.496;18.412;2023-05-14T03:11:28;12.40;;;7.80;;
67372;SDS011;54257;54.496;18.412;2023-05-14T03:13:55;13.20;;;6.80;;
67372;SDS011;54257;54.496;18.412;2023-05-14T03:16:22;8.20;;;6.50;;
67372;SDS011;54257;54.496;18.412;2023-05-14T03:18:49;9.50;;;7.30;;
67372;SDS011;54257;54.496;18.412;2023-05-14T03:21:16;8.60;;;6.60;;
67372;SDS011;54257;54.496;18.412;2023-05-14T03:23:45;8.50;;;6.90;;
67372;SDS011;54257;54.496;18.412;2023-05-14T03:26:12;10.70;;;7.30;;
67372;SDS011;54257;54.496;18.412;2023-05-14T03:28:39;7.80;;;6.80;;
67372;SDS011;54257;54.496;18.412;2023-05-14T03:31:06;9.10;;;7.20;;
67372;SDS011;54257;54.496;18.412;2023-05-14T03:33:32;8.80;;;7.40;;
67372;SDS011;54257;54.496;18.412;2023-05-14T03:35:59;7.90;;;7.20;;
67372;SDS011;54257;54.496;18.412;2023-05-14T03:38:26;8.90;;;7.40;;
67372;SDS011;54257;54.496;18.412;2023-05-14T03:40:53;7.80;;;6.80;;
67372;SDS011;54257;54.496;18.412;2023-05-14T03:43:20;8.80;;;7.70;;
67372;SDS011;54257;54.496;18.412;2023-05-14T03:45:47;9.10;;;7.00;;
67372;SDS011;54257;54.496;18.412;2023-05-14T03:48:18;8.40;;;7.60;;
67372;SDS011;54257;54.496;18.412;2023-05-14T03:50:45;8.30;;;6.90;;
67372;SDS011;54257;54.496;18.412;2023-05-14T03:53:12;9.60;;;8.70;;
67372;SDS011;54257;54.496;18.412;2023-05-14T03:55:38;10.80;;;7.30;;
67372;SDS011;54257;54.496;18.412;2023-05-14T03:58:08;9.50;;;7.40;;
67372;SDS011;54257;54.496;18.412;2023-05-14T04:00:40;9.10;;;8.20;;
67372;SDS011;54257;54.496;18.412;2023-05-14T04:03:07;10.70;;;8.20;;
67372;SDS011;54257;54.496;18.412;2023-05-14T04:05:34;9.10;;;7.30;;
67372;SDS011;54257;54.496;18.412;2023-05-14T04:08:01;11.50;;;8.20;;
67372;SDS011;54257;54.496;18.412;2023-05-14T04:10:28;11.50;;;7.40;;
67372;SDS011;54257;54.496;18.412;2023-05-14T04:12:57;9.70;;;8.80;;
67372;SDS011;54257;54.496;18.412;2023-05-14T04:15:24;10.80;;;8.50;;
67372;SDS011;54257;54.496;18.412;2023-05-14T04:17:51;13.10;;;8.50;;
67372;SDS011;54257;54.496;18.412;2023-05-14T04:20:17;11.60;;;9.00;;
67372;SDS011;54257;54.496;18.412;2023-05-14T04:22:44;11.10;;;9.30;;
67372;SDS011;54257;54.496;18.412;2023-05-14T04:25:11;11.50;;;9.60;;
67372;SDS011;54257;54.496;18.412;2023-05-14T04:27:38;12.20;;;8.60;;
67372;SDS011;54257;54.496;18.412;2023-05-14T04:30:05;8.60;;;7.80;;
67372;SDS011;54257;54.496;18.412;2023-05-14T04:32:34;14.00;;;8.70;;
67372;SDS011;54257;54.496;18.412;2023-05-14T04:35:01;12.60;;;9.30;;
67372;SDS011;54257;54.496;18.412;2023-05-14T04:37:28;9.80;;;8.80;;
67372;SDS011;54257;54.496;18.412;2023-05-14T04:39:55;9.70;;;8.60;;
67372;SDS011;54257;54.496;18.412;2023-05-14T04:42:22;13.10;;;9.20;;
67372;SDS011;54257;54.496;18.412;2023-05-14T04:44:49;10.20;;;9.20;;
67372;SDS011;54257;54.496;18.412;2023-05-14T04:47:15;16.30;;;10.40;;
67372;SDS011;54257;54.496;18.412;2023-05-14T04:49:43;15.00;;;10.50;;
67372;SDS011;54257;54.496;18.412;2023-05-14T04:52:10;12.60;;;11.30;;
67372;SDS011;54257;54.496;18.412;2023-05-14T04:54:37;18.30;;;11.50;;
67372;SDS011;54257;54.496;18.412;2023-05-14T04:57:03;17.40;;;11.10;;
67372;SDS011;54257;54.496;18.412;2023-05-14T04:59:33;12.80;;;10.80;;
67372;SDS011;54257;54.496;18.412;2023-05-14T05:02:00;12.30;;;9.70;;
67372;SDS011;54257;54.496;18.412;2023-05-14T05:04:27;12.30;;;9.80;;
67372;SDS011;54257;54.496;18.412;2023-05-14T05:06:54;11.00;;;9.60;;
67372;SDS011;54257;54.496;18.412;2023-05-14T05:09:20;14.50;;;9.80;;
67372;SDS011;54257;54.496;18.412;2023-05-14T05:11:47;9.70;;;7.70;;
67372;SDS011;54257;54.496;18.412;2023-05-14T05:14:14;8.40;;;7.20;;
67372;SDS011;54257;54.496;18.412;2023-05-14T05:16:41;13.80;;;8.10;;
67372;SDS011;54257;54.496;18.412;2023-05-14T05:19:08;12.30;;;7.80;;
67372;SDS011;54257;54.496;18.412;2023-05-14T05:21:34;12.60;;;7.70;;
67372;SDS011;54257;54.496;18.412;2023-05-14T05:24:01;9.10;;;7.10;;
67372;SDS011;54257;54.496;18.412;2023-05-14T05:26:28;10.80;;;6.80;;
67372;SDS011;54257;54.496;18.412;2023-05-14T05:28:58;8.80;;;6.80;;
67372;SDS011;54257;54.496;18.412;2023-05-14T05:31:24;8.30;;;6.70;;
67372;SDS011;54257;54.496;18.412;2023-05-14T05:33:51;10.20;;;6.50;;
67372;SDS011;54257;54.496;18.412;2023-05-14T05:36:23;11.80;;;7.40;;
67372;SDS011;54257;54.496;18.412;2023-05-14T05:38:53;7.20;;;6.10;;
67372;SDS011;54257;54.496;18.412;2023-05-14T05:41:22;7.90;;;6.50;;
67372;SDS011;54257;54.496;18.412;2023-05-14T05:43:52;14.00;;;6.40;;
67372;SDS011;54257;54.496;18.412;2023-05-14T05:46:18;8.30;;;5.80;;
67372;SDS011;54257;54.496;18.412;2023-05-14T05:48:45;7.50;;;5.70;;
67372;SDS011;54257;54.496;18.412;2023-05-14T05:51:12;7.70;;;4.90;;
67372;SDS011;54257;54.496;18.412;2023-05-14T05:53:39;7.70;;;5.30;;
67372;SDS011;54257;54.496;18.412;2023-05-14T05:56:07;6.40;;;4.80;;
67372;SDS011;54257;54.496;18.412;2023-05-14T05:58:34;7.00;;;4.70;;
67372;SDS011;54257;54.496;18.412;2023-05-14T06:01:01;7.00;;;4.70;;
67372;SDS011;54257;54.496;18.412;2023-05-14T06:03:31;6.30;;;4.00;;
67372;SDS011;54257;54.496;18.412;2023-05-14T06:05:57;8.40;;;4.50;;
67372;SDS011;54257;54.496;18.412;2023-05-14T06:08:24;7.10;;;4.70;;
67372;SDS011;54257;54.496;18.412;2023-05-14T06:10:51;7.70;;;4.40;;
67372;SDS011;54257;54.496;18.412;2023-05-14T06:13:18;6.80;;;4.10;;
67372;SDS011;54257;54.496;18.412;2023-05-14T06:15:45;6.30;;;4.40;;
67372;SDS011;54257;54.496;18.412;2023-05-14T06:18:11;10.20;;;4.30;;
67372;SDS011;54257;54.496;18.412;2023-05-14T06:20:39;6.60;;;4.20;;
67372;SDS011;54257;54.496;18.412;2023-05-14T06:23:07;4.60;;;4.00;;
67372;SDS011;54257;54.496;18.412;2023-05-14T06:25:34;5.10;;;4.30;;
67372;SDS011;54257;54.496;18.412;2023-05-14T06:28:01;7.80;;;4.00;;
67372;SDS011;54257;54.496;18.412;2023-05-14T06:30:28;10.40;;;4.10;;
67372;SDS011;54257;54.496;18.412;2023-05-14T06:32:55;6.90;;;4.10;;
67372;SDS011;54257;54.496;18.412;2023-05-14T06:35:22;7.10;;;4.30;;
67372;SDS011;54257;54.496;18.412;2023-05-14T06:37:49;8.40;;;4.20;;
67372;SDS011;54257;54.496;18.412;2023-05-14T06:40:17;7.50;;;4.20;;
67372;SDS011;54257;54.496;18.412;2023-05-14T06:42:50;8.60;;;4.80;;
67372;SDS011;54257;54.496;18.412;2023-05-14T06:45:25;4.70;;;3.80;;
67372;SDS011;54257;54.496;18.412;2023-05-14T06:47:54;7.00;;;4.00;;
67372;SDS011;54257;54.496;18.412;2023-05-14T06:50:24;5.10;;;3.70;;
67372;SDS011;54257;54.496;18.412;2023-05-14T06:52:53;11.40;;;3.60;;
67372;SDS011;54257;54.496;18.412;2023-05-14T06:55:19;5.10;;;3.70;;
67372;SDS011;54257;54.496;18.412;2023-05-14T06:57:47;5.20;;;3.80;;
67372;SDS011;54257;54.496;18.412;2023-05-14T07:00:16;3.90;;;3.50;;
67372;SDS011;54257;54.496;18.412;2023-05-14T07:02:43;5.80;;;3.50;;
67372;SDS011;54257;54.496;18.412;2023-05-14T07:05:09;4.00;;;3.60;;
67372;SDS011;54257;54.496;18.412;2023-05-14T07:07:38;9.50;;;3.80;;
67372;SDS011;54257;54.496;18.412;2023-05-14T07:10:05;4.30;;;3.70;;
67372;SDS011;54257;54.496;18.412;2023-05-14T07:12:33;5.90;;;3.70;;
67372;SDS011;54257;54.496;18.412;2023-05-14T07:15:28;7.70;;;3.80;;
67372;SDS011;54257;54.496;18.412;2023-05-14T07:18:34;6.50;;;4.00;;
67372;SDS011;54257;54.496;18.412;2023-05-14T07:21:18;4.20;;;3.70;;
67372;SDS011;54257;54.496;18.412;2023-05-14T07:24:28;6.50;;;3.80;;
67372;SDS011;54257;54.496;18.412;2023-05-14T07:27:16;6.10;;;3.60;;
67372;SDS011;54257;54.496;18.412;2023-05-14T07:29:43;4.90;;;3.30;;
67372;SDS011;54257;54.496;18.412;2023-05-14T07:32:10;5.10;;;3.50;;
67372;SDS011;54257;54.496;18.412;2023-05-14T07:34:37;6.00;;;3.50;;
67372;SDS011;54257;54.496;18.412;2023-05-14T07:37:04;4.00;;;3.30;;
67372;SDS011;54257;54.496;18.412;2023-05-14T07:39:31;9.10;;;3.60;;
67372;SDS011;54257;54.496;18.412;2023-05-14T07:41:59;5.00;;;3.80;;
67372;SDS011;54257;54.496;18.412;2023-05-14T07:44:29;8.80;;;3.20;;
67372;SDS011;54257;54.496;18.412;2023-05-14T07:46:56;4.60;;;3.50;;
67372;SDS011;54257;54.496;18.412;2023-05-14T07:49:23;6.60;;;3.70;;
67372;SDS011;54257;54.496;18.412;2023-05-14T07:51:49;6.50;;;3.50;;
67372;SDS011;54257;54.496;18.412;2023-05-14T07:54:16;5.80;;;3.40;;
67372;SDS011;54257;54.496;18.412;2023-05-14T07:56:51;5.20;;;3.40;;
67372;SDS011;54257;54.496;18.412;2023-05-14T07:59:18;5.50;;;3.40;;
67372;SDS011;54257;54.496;18.412;2023-05-14T08:01:45;5.90;;;3.60;;
67372;SDS011;54257;54.496;18.412;2023-05-14T08:04:12;4.80;;;3.00;;
67372;SDS011;54257;54.496;18.412;2023-05-14T08:06:41;3.80;;;3.30;;
67372;SDS011;54257;54.496;18.412;2023-05-14T08:09:25;4.50;;;3.30;;
67372;SDS011;54257;54.496;18.412;2023-05-14T08:11:52;4.10;;;3.40;;
67372;SDS011;54257;54.496;18.412;2023-05-14T08:14:19;4.20;;;3.40;;
67372;SDS011;54257;54.496;18.412;2023-05-14T08:16:46;4.70;;;3.50;;
67372;SDS011;54257;54.496;18.412;2023-05-14T08:19:14;4.30;;;3.00;;
67372;SDS011;54257;54.496;18.412;2023-05-14T08:21:41;3.10;;;2.80;;
67372;SDS011;54257;54.496;18.412;2023-05-14T08:24:11;3.50;;;3.10;;
67372;SDS011;54257;54.496;18.412;2023-05-14T08:26:38;4.10;;;3.20;;
67372;SDS011;54257;54.496;18.412;2023-05-14T08:29:04;3.20;;;2.90;;
67372;SDS011;54257;54.496;18.412;2023-05-14T08:31:31;3.30;;;2.80;;
67372;SDS011;54257;54.496;18.412;2023-05-14T08:33:58;7.10;;;3.30;;
67372;SDS011;54257;54.496;18.412;2023-05-14T08:36:26;3.60;;;2.90;;
67372;SDS011;54257;54.496;18.412;2023-05-14T08:38:54;3.90;;;3.20;;
67372;SDS011;54257;54.496;18.412;2023-05-14T08:41:23;3.40;;;2.90;;
67372;SDS011;54257;54.496;18.412;2023-05-14T08:43:55;3.90;;;3.00;;
67372;SDS011;54257;54.496;18.412;2023-05-14T08:46:35;5.20;;;2.90;;
67372;SDS011;54257;54.496;18.412;2023-05-14T08:52:48;4.30;;;3.30;;
67372;SDS011;54257;54.496;18.412;2023-05-14T08:55:19;5.00;;;2.80;;
67372;SDS011;54257;54.496;18.412;2023-05-14T08:58:13;4.20;;;3.20;;
67372;SDS011;54257;54.496;18.412;2023-05-14T09:00:40;6.10;;;3.30;;
67372;SDS011;54257;54.496;18.412;2023-05-14T09:03:09;4.90;;;2.90;;
67372;SDS011;54257;54.496;18.412;2023-05-14T09:05:46;3.60;;;3.10;;
67372;SDS011;54257;54.496;18.412;2023-05-14T09:08:17;4.50;;;3.20;;
67372;SDS011;54257;54.496;18.412;2023-05-14T09:10:45;4.00;;;3.60;;
67372;SDS011;54257;54.496;18.412;2023-05-14T09:13:11;5.00;;;3.20;;
67372;SDS011;54257;54.496;18.412;2023-05-14T09:15:38;4.00;;;3.10;;
67372;SDS011;54257;54.496;18.412;2023-05-14T09:18:06;3.10;;;2.60;;
67372;SDS011;54257;54.496;18.412;2023-05-14T09:20:33;3.40;;;2.50;;
67372;SDS011;54257;54.496;18.412;2023-05-14T09:23:00;3.20;;;2.50;;
67372;SDS011;54257;54.496;18.412;2023-05-14T09:25:30;2.90;;;2.00;;
67372;SDS011;54257;54.496;18.412;2023-05-14T09:27:58;3.90;;;2.60;;
67372;SDS011;54257;54.496;18.412;2023-05-14T09:30:25;3.40;;;2.30;;
67372;SDS011;54257;54.496;18.412;2023-05-14T09:32:53;3.50;;;2.30;;
67372;SDS011;54257;54.496;18.412;2023-05-14T09:35:21;3.70;;;2.20;;
67372;SDS011;54257;54.496;18.412;2023-05-14T09:37:50;3.00;;;2.00;;
67372;SDS011;54257;54.496;18.412;2023-05-14T09:40:19;3.30;;;2.50;;
67372;SDS011;54257;54.496;18.412;2023-05-14T09:42:48;3.60;;;2.40;;
67372;SDS011;54257;54.496;18.412;2023-05-14T09:45:15;4.40;;;2.60;;
67372;SDS011;54257;54.496;18.412;2023-05-14T09:47:42;4.90;;;2.00;;
67372;SDS011;54257;54.496;18.412;2023-05-14T09:50:10;3.30;;;2.50;;
67372;SDS011;54257;54.496;18.412;2023-05-14T09:52:37;3.00;;;2.30;;
67372;SDS011;54257;54.496;18.412;2023-05-14T09:55:04;3.90;;;2.10;;
67372;SDS011;54257;54.496;18.412;2023-05-14T09:57:32;3.10;;;2.60;;
67372;SDS011;54257;54.496;18.412;2023-05-14T10:00:00;5.80;;;2.80;;
67372;SDS011;54257;54.496;18.412;2023-05-14T10:02:31;6.10;;;3.30;;
67372;SDS011;54257;54.496;18.412;2023-05-14T10:05:03;3.30;;;3.00;;
67372;SDS011;54257;54.496;18.412;2023-05-14T10:07:39;5.90;;;2.90;;
67372;SDS011;54257;54.496;18.412;2023-05-14T10:10:15;5.60;;;2.90;;
67372;SDS011;54257;54.496;18.412;2023-05-14T10:12:46;3.20;;;2.90;;
67372;SDS011;54257;54.496;18.412;2023-05-14T10:15:19;4.00;;;3.30;;
67372;SDS011;54257;54.496;18.412;2023-05-14T10:17:57;4.40;;;3.00;;
67372;SDS011;54257;54.496;18.412;2023-05-14T10:20:28;7.90;;;2.90;;
67372;SDS011;54257;54.496;18.412;2023-05-14T10:22:59;7.40;;;3.00;;
67372;SDS011;54257;54.496;18.412;2023-05-14T10:25:26;4.20;;;2.90;;
67372;SDS011;54257;54.496;18.412;2023-05-14T10:27:53;5.60;;;2.70;;
67372;SDS011;54257;54.496;18.412;2023-05-14T10:30:21;4.50;;;3.00;;
67372;SDS011;54257;54.496;18.412;2023-05-14T10:38:32;3.90;;;3.10;;
67372;SDS011;54257;54.496;18.412;2023-05-14T10:41:05;6.40;;;3.30;;
67372;SDS011;54257;54.496;18.412;2023-05-14T10:43:37;3.40;;;2.80;;
67372;SDS011;54257;54.496;18.412;2023-05-14T10:46:05;7.80;;;3.40;;
67372;SDS011;54257;54.496;18.412;2023-05-14T10:48:34;5.80;;;3.60;;
67372;SDS011;54257;54.496;18.412;2023-05-14T10:51:02;5.90;;;3.00;;
67372;SDS011;54257;54.496;18.412;2023-05-14T10:53:33;8.70;;;3.30;;
67372;SDS011;54257;54.496;18.412;2023-05-14T10:56:07;7.70;;;3.90;;
67372;SDS011;54257;54.496;18.412;2023-05-14T10:58:41;5.60;;;3.20;;
67372;SDS011;54257;54.496;18.412;2023-05-14T11:01:12;7.30;;;3.50;;
67372;SDS011;54257;54.496;18.412;2023-05-14T11:03:39;7.70;;;3.50;;
67372;SDS011;54257;54.496;18.412;2023-05-14T11:06:10;4.80;;;3.10;;
67372;SDS011;54257;54.496;18.412;2023-05-14T11:08:38;4.70;;;2.90;;
67372;SDS011;54257;54.496;18.412;2023-05-14T11:11:06;6.40;;;3.40;;
67372;SDS011;54257;54.496;18.412;2023-05-14T11:13:35;6.90;;;3.30;;
67372;SDS011;54257;54.496;18.412;2023-05-14T11:16:02;7.30;;;3.60;;
67372;SDS011;54257;54.496;18.412;2023-05-14T11:18:29;4.60;;;3.20;;
67372;SDS011;54257;54.496;18.412;2023-05-14T11:21:06;4.40;;;3.40;;
67372;SDS011;54257;54.496;18.412;2023-05-14T11:23:33;5.00;;;3.80;;
67372;SDS011;54257;54.496;18.412;2023-05-14T11:26:00;5.80;;;3.30;;
67372;SDS011;54257;54.496;18.412;2023-05-14T11:28:28;4.50;;;3.60;;
67372;SDS011;54257;54.496;18.412;2023-05-14T11:30:55;3.60;;;3.30;;
67372;SDS011;54257;54.496;18.412;2023-05-14T11:33:22;6.80;;;3.30;;
67372;SDS011;54257;54.496;18.412;2023-05-14T11:35:49;4.10;;;3.70;;
67372;SDS011;54257;54.496;18.412;2023-05-14T11:38:16;4.40;;;3.30;;
67372;SDS011;54257;54.496;18.412;2023-05-14T11:40:54;12.00;;;3.90;;
67372;SDS011;54257;54.496;18.412;2023-05-14T11:43:22;7.10;;;3.80;;
67372;SDS011;54257;54.496;18.412;2023-05-14T11:45:50;4.20;;;3.80;;
67372;SDS011;54257;54.496;18.412;2023-05-14T11:48:19;7.10;;;3.90;;
67372;SDS011;54257;54.496;18.412;2023-05-14T11:50:49;5.90;;;3.50;;
67372;SDS011;54257;54.496;18.412;2023-05-14T11:53:18;4.80;;;3.90;;
67372;SDS011;54257;54.496;18.412;2023-05-14T11:55:53;5.30;;;4.20;;
67372;SDS011;54257;54.496;18.412;2023-05-14T11:58:20;6.70;;;4.10;;
67372;SDS011;54257;54.496;18.412;2023-05-14T12:00:59;4.70;;;3.80;;
67372;SDS011;54257;54.496;18.412;2023-05-14T12:03:26;4.40;;;3.30;;
67372;SDS011;54257;54.496;18.412;2023-05-14T12:05:55;5.80;;;3.30;;
67372;SDS011;54257;54.496;18.412;2023-05-14T12:08:26;4.00;;;3.60;;
67372;SDS011;54257;54.496;18.412;2023-05-14T12:10:55;5.50;;;3.50;;
67372;SDS011;54257;54.496;18.412;2023-05-14T12:13:45;5.70;;;3.30;;
67372;SDS011;54257;54.496;18.412;2023-05-14T12:16:15;4.30;;;3.80;;
67372;SDS011;54257;54.496;18.412;2023-05-14T12:18:43;5.80;;;3.40;;
67372;SDS011;54257;54.496;18.412;2023-05-14T12:21:09;5.90;;;3.40;;
67372;SDS011;54257;54.496;18.412;2023-05-14T12:23:37;3.80;;;3.50;;
67372;SDS011;54257;54.496;18.412;2023-05-14T12:26:07;6.20;;;4.00;;
67372;SDS011;54257;54.496;18.412;2023-05-14T12:28:34;3.90;;;3.50;;
67372;SDS011;54257;54.496;18.412;2023-05-14T12:31:08;8.10;;;3.70;;
67372;SDS011;54257;54.496;18.412;2023-05-14T12:33:35;5.20;;;3.50;;
67372;SDS011;54257;54.496;18.412;2023-05-14T12:36:02;6.20;;;4.20;;
67372;SDS011;54257;54.496;18.412;2023-05-14T12:38:30;6.10;;;3.80;;
67372;SDS011;54257;54.496;18.412;2023-05-14T12:40:57;5.50;;;3.50;;
67372;SDS011;54257;54.496;18.412;2023-05-14T12:43:24;6.30;;;4.40;;
67372;SDS011;54257;54.496;18.412;2023-05-14T12:45:56;4.70;;;3.80;;
67372;SDS011;54257;54.496;18.412;2023-05-14T12:48:23;6.50;;;4.10;;
67372;SDS011;54257;54.496;18.412;2023-05-14T12:50:50;7.10;;;4.40;;
67372;SDS011;54257;54.496;18.412;2023-05-14T12:53:17;8.30;;;4.30;;
67372;SDS011;54257;54.496;18.412;2023-05-14T12:55:44;7.80;;;4.20;;
67372;SDS011;54257;54.496;18.412;2023-05-14T12:58:12;5.00;;;4.40;;
67372;SDS011;54257;54.496;18.412;2023-05-14T13:00:39;4.50;;;3.90;;
67372;SDS011;54257;54.496;18.412;2023-05-14T13:03:05;5.10;;;4.00;;
67372;SDS011;54257;54.496;18.412;2023-05-14T13:05:32;8.20;;;3.90;;
67372;SDS011;54257;54.496;18.412;2023-05-14T13:07:59;4.30;;;3.80;;
67372;SDS011;54257;54.496;18.412;2023-05-14T13:10:29;6.20;;;4.70;;
67372;SDS011;54257;54.496;18.412;2023-05-14T13:13:00;6.90;;;3.90;;
67372;SDS011;54257;54.496;18.412;2023-05-14T13:15:28;5.90;;;3.70;;
67372;SDS011;54257;54.496;18.412;2023-05-14T13:18:29;5.50;;;4.10;;
67372;SDS011;54257;54.496;18.412;2023-05-14T13:20:57;8.20;;;4.70;;
67372;SDS011;54257;54.496;18.412;2023-05-14T13:23:36;8.50;;;4.30;;
67372;SDS011;54257;54.496;18.412;2023-05-14T13:26:16;7.30;;;4.20;;
67372;SDS011;54257;54.496;18.412;2023-05-14T13:28:47;6.90;;;4.20;;
67372;SDS011;54257;54.496;18.412;2023-05-14T13:31:14;4.40;;;3.70;;
67372;SDS011;54257;54.496;18.412;2023-05-14T13:33:47;7.20;;;4.30;;
67372;SDS011;54257;54.496;18.412;2023-05-14T13:36:15;7.80;;;4.90;;
67372;SDS011;54257;54.496;18.412;2023-05-14T13:38:45;5.20;;;4.60;;
67372;SDS011;54257;54.496;18.412;2023-05-14T13:41:15;7.00;;;4.30;;
67372;SDS011;54257;54.496;18.412;2023-05-14T13:43:42;7.10;;;4.80;;
67372;SDS011;54257;54.496;18.412;2023-05-14T13:46:09;8.20;;;4.70;;
67372;SDS011;54257;54.496;18.412;2023-05-14T13:48:41;4.80;;;4.40;;
67372;SDS011;54257;54.496;18.412;2023-05-14T13:51:07;30.20;;;7.80;;
67372;SDS011;54257;54.496;18.412;2023-05-14T13:53:34;7.60;;;4.30;;
67372;SDS011;54257;54.496;18.412;2023-05-14T13:56:01;10.30;;;4.50;;
67372;SDS011;54257;54.496;18.412;2023-05-14T13:58:28;5.40;;;4.00;;
67372;SDS011;54257;54.496;18.412;2023-05-14T14:00:58;6.50;;;3.90;;
67372;SDS011;54257;54.496;18.412;2023-05-14T14:03:24;5.60;;;3.40;;
67372;SDS011;54257;54.496;18.412;2023-05-14T14:05:51;4.30;;;3.50;;
67372;SDS011;54257;54.496;18.412;2023-05-14T14:08:18;4.90;;;2.60;;
67372;SDS011;54257;54.496;18.412;2023-05-14T14:10:45;5.40;;;2.50;;
67372;SDS011;54257;54.496;18.412;2023-05-14T14:13:16;3.30;;;2.80;;
67372;SDS011;54257;54.496;18.412;2023-05-14T14:15:51;3.00;;;2.20;;
67372;SDS011;54257;54.496;18.412;2023-05-14T14:18:18;2.70;;;2.50;;
67372;SDS011;54257;54.496;18.412;2023-05-14T14:20:45;3.90;;;2.70;;
67372;SDS011;54257;54.496;18.412;2023-05-14T14:23:35;4.20;;;2.90;;
67372;SDS011;54257;54.496;18.412;2023-05-14T14:26:01;5.90;;;3.00;;
67372;SDS011;54257;54.496;18.412;2023-05-14T14:28:29;4.50;;;3.20;;
67372;SDS011;54257;54.496;18.412;2023-05-14T14:30:56;4.70;;;3.30;;
67372;SDS011;54257;54.496;18.412;2023-05-14T14:33:23;3.70;;;3.30;;
67372;SDS011;54257;54.496;18.412;2023-05-14T14:35:51;5.50;;;3.30;;
67372;SDS011;54257;54.496;18.412;2023-05-14T14:38:18;6.50;;;3.50;;
67372;SDS011;54257;54.496;18.412;2023-05-14T14:40:45;10.70;;;3.70;;
67372;SDS011;54257;54.496;18.412;2023-05-14T14:43:15;6.80;;;3.90;;
67372;SDS011;54257;54.496;18.412;2023-05-14T14:45:46;8.10;;;3.80;;
67372;SDS011;54257;54.496;18.412;2023-05-14T14:50:49;4.20;;;3.60;;
67372;SDS011;54257;54.496;18.412;2023-05-14T14:53:17;7.10;;;3.80;;
67372;SDS011;54257;54.496;18.412;2023-05-14T14:55:44;5.40;;;3.70;;
67372;SDS011;54257;54.496;18.412;2023-05-14T14:58:11;5.00;;;3.70;;
67372;SDS011;54257;54.496;18.412;2023-05-14T15:00:38;8.30;;;3.90;;
67372;SDS011;54257;54.496;18.412;2023-05-14T15:03:05;7.90;;;4.30;;
67372;SDS011;54257;54.496;18.412;2023-05-14T15:05:36;8.30;;;4.30;;
67372;SDS011;54257;54.496;18.412;2023-05-14T15:08:03;4.10;;;3.70;;